Time;durP1;ratioP1;P1;durP2;ratioP2;P2;SDS_P1;SDS_P2;PMS_P1;PMS_P2;Temp;Humidity;BMP_temperature;BMP_pressure;BME280_temperature;BME280_humidity;BME280_pressure;Samples;Min_cycle;Max_cycle;Signal;HPM_P1;HPM_P2
2021/03/23 00:01:03;;;;;;;29.05;12.93;;;;;;;1.43;82.86;98878.90;1713207;80;21166;-80
2021/03/23 00:03:56;;;;;;;32.58;14.23;;;;;;;1.42;83.72;98881.05;1694077;80;21231;31
2021/03/23 00:12:42;;;;;;;28.60;13.28;;;;;;;1.46;86.55;98892.59;1715753;81;21191;-82
2021/03/23 00:15:14;;;;;;;28.75;12.13;;;;;;;1.41;87.59;98895.53;1729324;78;22635;31
2021/03/23 00:20:52;;;;;;;26.37;11.35;;;;;;;1.44;83.62;98903.69;1786441;77;21137;-82
2021/03/23 00:23:20;;;;;;;25.95;12.45;;;;;;;1.44;84.53;98903.69;1749781;82;21224;-82
2021/03/23 00:26:09;;;;;;;27.15;11.73;;;;;;;1.43;82.23;98901.95;1727322;79;22853;-78
2021/03/23 00:34:36;;;;;;;24.90;11.95;;;;;;;1.44;82.36;98907.10;1769594;77;21132;-79
2021/03/23 00:40:41;;;;;;;36.95;14.73;;;;;;;1.43;83.00;98905.37;1751659;79;21102;-81
2021/03/23 00:43:10;;;;;;;32.03;13.58;;;;;;;1.45;82.22;98913.07;1758474;78;21114;-80
2021/03/23 00:46:03;;;;;;;26.50;13.45;;;;;;;1.46;81.49;98914.80;1737107;79;21145;31
2021/03/23 00:48:37;;;;;;;28.70;12.43;;;;;;;1.46;82.93;98923.77;1740784;78;21335;31
2021/03/23 00:51:08;;;;;;;25.12;12.58;;;;;;;1.47;84.35;98921.20;1735137;79;22918;31
2021/03/23 00:56:49;;;;;;;32.98;14.03;;;;;;;1.50;85.17;98913.55;1725623;80;21234;-83
2021/03/23 00:59:16;;;;;;;36.03;15.72;;;;;;;1.53;85.54;98922.95;1763679;76;21087;-83
2021/03/23 01:01:44;;;;;;;31.35;13.88;;;;;;;1.54;86.05;98926.83;1774941;77;21226;-80
2021/03/23 01:08:26;;;;;;;37.60;15.45;;;;;;;1.55;85.89;98931.12;1769215;76;22794;31
2021/03/23 01:11:15;;;;;;;35.78;13.88;;;;;;;1.59;85.66;98926.85;1725383;78;21252;-79
2021/03/23 01:17:04;;;;;;;;;;;;;;;;;;;;;
2021/03/23 01:28:44;;;;;;;40.50;16.12;;;;;;;1.71;84.52;98939.79;1751061;78;21230;-84
2021/03/23 01:31:26;;;;;;;34.58;15.60;;;;;;;1.74;84.07;98941.08;1773236;78;21379;31
2021/03/23 01:34:03;;;;;;;35.73;16.30;;;;;;;1.78;84.66;98940.69;1745912;78;21242;31
2021/03/23 01:39:39;;;;;;;33.90;13.20;;;;;;;1.81;85.04;98938.56;1757861;78;21258;31
2021/03/23 01:42:18;;;;;;;33.87;13.93;;;;;;;1.77;83.61;98945.36;1738925;79;21286;31
2021/03/23 02:00:53;;;;;;;35.20;14.83;;;;;;;1.76;85.06;98949.64;1750943;78;21109;-83
2021/03/23 02:03:34;;;;;;;35.55;14.70;;;;;;;1.76;82.07;98949.64;1722393;79;21279;31
2021/03/23 02:06:04;;;;;;;35.60;14.30;;;;;;;1.71;83.00;98953.00;1720902;78;21327;-82
2021/03/23 02:08:32;;;;;;;35.92;15.80;;;;;;;1.71;82.74;98957.73;1758788;79;21127;-83
2021/03/23 02:11:02;;;;;;;34.40;15.78;;;;;;;1.71;83.63;98958.13;1809483;78;21119;-84
2021/03/23 02:13:30;;;;;;;37.75;16.80;;;;;;;1.72;83.42;98959.43;1808380;78;21285;-85
2021/03/23 02:19:27;;;;;;;36.33;15.40;;;;;;;1.69;85.04;98957.26;1736502;78;22535;31
2021/03/23 02:25:09;;;;;;;35.33;15.68;;;;;;;1.59;81.96;98956.32;1804258;77;21430;-81
2021/03/23 02:27:47;;;;;;;33.28;15.48;;;;;;;1.53;81.03;98961.00;1729345;78;21150;31
2021/03/23 02:30:26;;;;;;;28.27;14.25;;;;;;;1.48;82.57;98968.20;1726612;79;21223;-83
2021/03/23 02:33:18;;;;;;;30.90;14.85;;;;;;;1.37;85.96;98965.12;1729390;79;21229;31
2021/03/23 02:42:15;;;;;;;34.78;15.20;;;;;;;1.28;84.08;98968.85;1693217;80;21378;31
2021/03/23 02:44:48;;;;;;;36.93;15.75;;;;;;;1.31;82.90;98974.02;1740948;77;21254;31
2021/03/23 02:47:36;;;;;;;34.48;15.38;;;;;;;1.32;84.67;98977.44;1770605;77;21181;-79
2021/03/23 02:50:09;;;;;;;31.48;13.90;;;;;;;1.34;85.96;98988.13;1718934;79;21260;-82
2021/03/23 02:52:39;;;;;;;38.15;16.12;;;;;;;1.36;85.07;98991.56;1739133;77;21260;-81
2021/03/23 02:55:09;;;;;;;32.00;14.60;;;;;;;1.37;84.26;98989.84;1745881;77;21386;-78
2021/03/23 03:01:14;;;;;;;21.57;10.05;;;;;;;1.31;82.35;98993.23;1739208;77;21161;31
2021/03/23 03:04:02;;;;;;;44.30;14.07;;;;;;;1.26;81.56;98997.86;1765973;77;21311;31
2021/03/23 03:09:40;;;;;;;18.55;8.55;;;;;;;1.16;79.98;99011.84;1778858;75;21158;-80
2021/03/23 03:12:09;;;;;;;16.75;6.10;;;;;;;1.14;78.63;99010.11;1738321;79;21177;-83
2021/03/23 03:18:10;;;;;;;10.60;5.20;;;;;;;1.16;78.88;99019.52;1751365;79;21114;31
2021/03/23 03:20:49;;;;;;;11.50;5.33;;;;;;;1.18;78.29;99028.50;1740395;78;21295;31
2021/03/23 03:23:18;;;;;;;11.43;5.15;;;;;;;1.15;76.79;99028.06;1734828;79;21114;-84
2021/03/23 03:25:47;;;;;;;11.25;5.40;;;;;;;1.15;76.30;99026.78;1734740;78;21141;-81
2021/03/23 03:31:56;;;;;;;12.88;4.75;;;;;;;1.13;76.11;99029.71;1734469;79;21361;31
2021/03/23 03:34:24;;;;;;;11.38;4.42;;;;;;;1.12;75.05;99033.56;1712548;79;21252;-78
2021/03/23 03:36:52;;;;;;;8.95;3.40;;;;;;;1.10;74.39;99037.38;1776651;78;21089;-84
2021/03/23 03:42:41;;;;;;;7.27;3.50;;;;;;;1.06;73.97;99033.48;1758860;77;21216;31
2021/03/23 03:58:14;;;;;;;5.13;2.67;;;;;;;0.86;72.51;99049.45;1732567;78;21238;31
2021/03/23 04:06:57;;;;;;;6.65;3.10;;;;;;;0.75;69.50;99066.34;1709911;80;21217;-82
2021/03/23 04:09:25;;;;;;;8.08;2.47;;;;;;;0.72;67.35;99063.34;1724637;79;21145;-83
2021/03/23 04:39:32;;;;;;;7.97;3.47;;;;;;;0.61;65.78;99090.89;1754001;77;21237;31
2021/03/23 04:45:10;;;;;;;8.23;3.40;;;;;;;0.54;67.03;99104.88;1743587;77;21259;-81
2021/03/23 04:54:09;;;;;;;16.80;6.55;;;;;;;0.53;67.48;99113.80;1744786;77;21601;31
2021/03/23 05:19:15;;;;;;;32.95;11.97;;;;;;;0.50;67.05;99149.58;1757697;78;22355;31
2021/03/23 05:28:10;;;;;;;13.62;5.20;;;;;;;0.60;68.07;99161.67;1751103;76;21100;31
2021/03/23 05:30:50;;;;;;;12.47;5.87;;;;;;;0.67;68.19;99167.73;1756080;78;21199;31
2021/03/23 05:36:44;;;;;;;26.87;7.77;;;;;;;0.80;68.56;99164.55;1739763;77;21153;31
2021/03/23 05:52:29;;;;;;;34.43;13.30;;;;;;;1.34;66.81;99178.95;1736303;76;21828;-81
2021/03/23 05:55:06;;;;;;;18.65;7.85;;;;;;;1.46;66.77;99173.13;1723783;78;21219;-81
2021/03/23 06:01:01;;;;;;;15.32;7.20;;;;;;;1.69;66.82;99170.87;1760828;77;21203;31
2021/03/23 06:03:35;;;;;;;14.55;5.90;;;;;;;1.84;65.31;99180.84;1735689;78;21147;-83
2021/03/23 06:06:46;;;;;;;12.75;6.12;;;;;;;1.95;64.92;99180.53;1769670;77;21099;-85
2021/03/23 06:34:56;;;;;;;20.37;9.30;;;;;;;2.80;60.41;99202.71;1684955;78;21164;-88
2021/03/23 06:37:35;;;;;;;20.97;7.90;;;;;;;2.84;59.07;99201.89;1752884;78;21304;-86
2021/03/23 06:40:14;;;;;;;17.65;6.22;;;;;;;2.88;60.89;99198.92;1734227;79;21802;-87
2021/03/23 06:42:46;;;;;;;10.48;4.85;;;;;;;2.93;58.10;99201.12;1758075;78;21326;-89
2021/03/23 06:45:37;;;;;;;9.75;4.17;;;;;;;2.98;56.48;99208.02;1786686;78;21182;-89
2021/03/23 06:48:34;;;;;;;6.92;3.25;;;;;;;3.08;56.71;99211.91;1803472;77;21299;-90
2021/03/23 06:54:19;;;;;;;13.85;6.28;;;;;;;3.26;56.84;99212.45;1759137;80;21268;-91
2021/03/23 06:57:19;;;;;;;32.05;6.47;;;;;;;3.39;57.42;99209.97;1745429;78;21168;-90
2021/03/23 07:00:00;;;;;;;19.23;6.17;;;;;;;3.45;56.65;99207.02;1772925;76;21732;-89
2021/03/23 07:05:38;;;;;;;16.62;4.75;;;;;;;3.44;54.38;99206.13;1750296;77;21114;-91
2021/03/23 07:08:15;;;;;;;35.95;6.47;;;;;;;3.43;54.29;99200.56;1762930;80;21253;-89
2021/03/23 07:10:53;;;;;;;15.18;4.75;;;;;;;3.37;54.99;99193.68;1681511;78;21152;-88
2021/03/23 07:13:33;;;;;;;14.43;5.33;;;;;;;3.35;55.42;99198.39;1696484;81;21114;-88
2021/03/23 07:16:13;;;;;;;13.30;4.10;;;;;;;3.34;53.62;99195.37;1804094;77;21252;-89
2021/03/23 07:18:45;;;;;;;8.68;2.70;;;;;;;3.34;55.56;99197.53;1860067;75;21134;-84
2021/03/23 07:21:31;;;;;;;13.32;3.05;;;;;;;3.32;56.57;99194.50;1790709;76;21139;-89
2021/03/23 07:24:08;;;;;;;11.90;4.33;;;;;;;3.31;55.62;99197.50;1780388;79;21279;-87
2021/03/23 07:26:40;;;;;;;9.73;3.70;;;;;;;3.29;55.54;99191.93;1769645;79;21140;-85
2021/03/23 07:29:25;;;;;;;6.83;2.37;;;;;;;3.25;53.55;99196.19;1752334;79;21717;-84
2021/03/23 07:32:28;;;;;;;11.60;3.95;;;;;;;3.26;53.98;99197.89;1767040;78;21763;-86
2021/03/23 07:35:28;;;;;;;5.60;2.30;;;;;;;3.32;54.64;99194.50;1772783;80;21280;-86
2021/03/23 07:38:40;;;;;;;13.48;2.98;;;;;;;3.30;50.75;99191.95;1723130;83;21316;-87
2021/03/23 07:41:21;;;;;;;7.25;3.47;;;;;;;3.39;53.85;99197.12;1721901;80;21166;-84
2021/03/23 07:43:57;;;;;;;5.50;2.30;;;;;;;3.44;52.55;99203.99;1713857;80;21527;-85
2021/03/23 07:46:42;;;;;;;6.05;2.42;;;;;;;3.44;52.47;99201.42;1759414;79;21261;-86
2021/03/23 07:49:45;;;;;;;5.55;2.10;;;;;;;3.37;50.75;99201.83;1742775;79;21138;-88
2021/03/23 07:52:41;;;;;;;5.55;2.10;;;;;;;3.35;49.18;99204.38;1728484;83;21373;-85
2021/03/23 07:55:20;;;;;;;7.87;2.10;;;;;;;3.31;48.83;99201.80;1723929;81;21308;-89
2021/03/23 07:58:15;;;;;;;4.30;2.00;;;;;;;3.27;51.08;99193.20;1770485;80;21318;-84
2021/03/23 08:01:13;;;;;;;7.58;2.70;;;;;;;3.31;51.58;99196.22;1759704;80;21173;-84
2021/03/23 08:04:04;;;;;;;6.95;2.83;;;;;;;3.36;52.35;99190.70;1758343;80;21225;-84
2021/03/23 08:07:16;;;;;;;9.48;2.40;;;;;;;3.39;50.90;99189.84;1750082;80;21264;-85
2021/03/23 08:10:16;;;;;;;5.90;2.08;;;;;;;3.46;52.38;99183.89;1733882;80;21323;-86
2021/03/23 08:13:19;;;;;;;6.33;2.92;;;;;;;3.60;49.42;99183.92;1768137;78;21189;-85
2021/03/23 08:16:07;;;;;;;6.17;2.45;;;;;;;3.73;50.30;99178.42;1762465;79;21193;-89
2021/03/23 08:18:55;;;;;;;9.05;2.40;;;;;;;3.88;51.92;99178.48;1746543;79;21189;-90
2021/03/23 08:21:43;;;;;;;5.70;1.80;;;;;;;3.77;49.25;99141.58;1756384;80;21269;-87
2021/03/23 08:24:34;;;;;;;7.12;1.87;;;;;;;4.07;48.82;99172.95;1792402;78;21626;-91
2021/03/23 08:27:47;;;;;;;5.37;1.92;;;;;;;4.11;48.72;99179.81;1782800;78;21127;-89
2021/03/23 08:30:59;;;;;;;6.42;2.40;;;;;;;4.09;46.69;99176.39;1743433;80;21131;-89
2021/03/23 08:34:04;;;;;;;9.13;2.40;;;;;;;4.02;42.01;99182.80;1727246;82;21346;-90
2021/03/23 08:37:02;;;;;;;11.85;4.17;;;;;;;4.02;41.23;99177.65;1758458;78;21277;-87
2021/03/23 08:39:52;;;;;;;5.15;1.70;;;;;;;4.07;43.96;99172.10;1716146;82;21640;-90
2021/03/23 08:42:25;;;;;;;10.48;2.17;;;;;;;4.03;43.66;99169.94;1735282;79;21301;-89
2021/03/23 08:45:10;;;;;;;5.00;1.92;;;;;;;4.09;46.46;99167.38;1706786;79;21151;-89
2021/03/23 08:47:42;;;;;;;6.35;1.70;;;;;;;4.19;45.84;99161.39;1784307;79;21159;-88
2021/03/23 08:50:36;;;;;;;8.10;2.17;;;;;;;4.29;42.08;99166.56;1804250;76;21199;-91
2021/03/23 08:53:46;;;;;;;4.92;1.67;;;;;;;4.30;45.80;99155.42;1797356;77;21855;-89
2021/03/23 08:56:13;;;;;;;5.92;1.90;;;;;;;4.26;41.35;99158.42;1795667;78;21153;-89
2021/03/23 08:58:50;;;;;;;6.55;2.20;;;;;;;4.32;44.70;99159.71;1798987;79;21134;-85
2021/03/23 09:02:00;;;;;;;21.25;2.37;;;;;;;4.44;42.97;99158.02;1777575;77;22521;-90
2021/03/23 09:04:34;;;;;;;4.67;1.72;;;;;;;4.55;45.81;99142.13;1712375;82;21212;-89
2021/03/23 09:07:14;;;;;;;11.93;3.05;;;;;;;4.67;40.68;99146.41;1750092;79;21123;-91
2021/03/23 09:09:49;;;;;;;6.17;1.85;;;;;;;4.75;42.62;99152.41;1700024;81;21554;-90
2021/03/23 09:12:42;;;;;;;4.15;1.65;;;;;;;4.72;39.70;99144.27;1710677;80;21132;-92
2021/03/23 09:15:20;;;;;;;4.43;2.03;;;;;;;4.71;39.89;99138.67;1777278;76;22273;-92
2021/03/23 09:18:17;;;;;;;7.42;2.35;;;;;;;4.83;44.27;99133.94;1717695;79;21166;-91
2021/03/23 09:20:57;;;;;;;13.43;2.33;;;;;;;5.02;40.30;99143.80;1737018;79;21527;-92
2021/03/23 09:23:30;;;;;;;5.90;2.10;;;;;;;5.17;44.57;99133.88;1737440;78;21198;-91
2021/03/23 09:26:36;;;;;;;9.15;2.35;;;;;;;5.32;43.12;99125.25;1722587;82;21173;-91
2021/03/23 09:29:35;;;;;;;6.85;2.60;;;;;;;5.41;38.42;99126.49;1764026;79;21592;-90
2021/03/23 09:32:17;;;;;;;5.15;1.50;;;;;;;5.54;44.71;99123.45;1783628;78;21715;-89
2021/03/23 09:35:24;;;;;;;;;;;;;;;;;;;;;
2021/03/23 09:38:20;;;;;;;6.45;2.00;;;;;;;5.73;37.67;99131.94;1793588;78;28303;-93
2021/03/23 09:41:00;;;;;;;4.72;1.80;;;;;;;5.75;36.14;99114.77;1723134;77;21319;-92
2021/03/23 09:43:42;;;;;;;8.10;2.05;;;;;;;5.88;42.32;99105.22;1792325;78;21109;-90
2021/03/23 09:46:47;;;;;;;5.05;1.80;;;;;;;6.09;37.52;99115.45;1752089;80;21720;-89
2021/03/23 09:49:22;;;;;;;4.65;1.50;;;;;;;6.24;42.04;99105.43;1702796;81;21284;-93
2021/03/23 09:55:15;;;;;;;7.10;1.90;;;;;;;6.57;39.78;99104.75;1748860;81;21295;-90
2021/03/23 10:10:03;;;;;;;5.42;1.42;;;;;;;7.36;42.23;99087.97;1778763;78;21182;-93
2021/03/23 10:52:41;;;;;;;;;;;;;;;;;;;;;
2021/03/23 10:55:38;;;;;;;6.50;2.30;;;;;;;8.73;35.88;98990.06;1761405;79;21183;31
2021/03/23 11:15:02;;;;;;;14.90;3.75;;;;;;;9.47;30.04;99002.81;1725039;77;21303;-94
2021/03/23 11:17:51;;;;;;;9.35;3.02;;;;;;;9.73;33.31;98993.16;1682457;80;21673;31
2021/03/23 11:27:41;;;;;;;9.00;1.87;;;;;;;9.81;30.92;98986.46;1779658;79;21189;-93
2021/03/23 12:06:02;;;;;;;5.27;2.10;;;;;;;10.42;29.90;98902.26;1777903;81;21317;-94
2021/03/23 12:51:30;;;;;;;4.78;2.35;;;;;;;7.54;37.31;98910.55;1729507;79;21178;-93
2021/03/23 13:00:58;;;;;;;6.58;2.85;;;;;;;7.28;37.14;98910.07;1755601;80;21162;-93
2021/03/23 13:03:48;;;;;;;13.38;3.22;;;;;;;7.31;37.50;98907.01;1720348;83;21166;-90
2021/03/23 13:09:58;;;;;;;14.10;2.40;;;;;;;7.30;37.72;98902.73;1681120;82;21247;-91
2021/03/23 13:58:35;;;;;;;10.48;2.30;;;;;;;7.60;36.10;98871.21;1731852;79;21597;-93
2021/03/23 14:07:41;;;;;;;4.10;1.80;;;;;;;7.43;37.25;98885.28;1734357;78;21104;-90
2021/03/23 14:10:36;;;;;;;22.27;8.35;;;;;;;7.36;37.68;98874.19;1777499;79;21166;-92
2021/03/23 14:19:41;;;;;;;6.70;2.30;;;;;;;7.40;37.08;98881.88;1732343;81;21166;-95
2021/03/23 14:32:04;;;;;;;16.17;2.10;;;;;;;7.17;36.59;98879.22;1732840;78;21211;31
2021/03/23 14:37:56;;;;;;;3.92;1.30;;;;;;;7.05;36.91;98866.47;1745113;82;21232;-92
2021/03/23 16:39:15;;;;;;;16.62;7.53;;;;;;;6.16;43.40;98828.44;1589569;86;21387;-91
2021/03/23 16:41:52;;;;;;;20.48;5.47;;;;;;;6.10;44.87;98836.25;1805924;77;22917;-92
2021/03/23 16:44:27;;;;;;;15.13;5.50;;;;;;;5.72;44.99;98782.02;1704889;78;21272;-89
2021/03/23 16:50:25;;;;;;;26.02;9.60;;;;;;;5.98;45.04;98829.50;1769949;80;21276;-93
2021/03/23 16:53:18;;;;;;;20.00;7.78;;;;;;;5.94;45.03;98829.92;1721892;82;21171;-92
2021/03/23 16:55:46;;;;;;;17.35;6.92;;;;;;;5.91;44.94;98839.00;1676435;81;21298;-92
2021/03/23 16:58:14;;;;;;;11.28;4.53;;;;;;;5.72;45.36;98808.66;1697915;84;21205;-92
2021/03/23 17:00:44;;;;;;;11.73;4.50;;;;;;;5.86;46.10;98827.02;1701154;84;21179;-92
2021/03/23 17:03:16;;;;;;;11.25;4.87;;;;;;;5.82;46.71;98828.77;1725228;81;22263;-93
2021/03/23 17:05:49;;;;;;;10.88;4.22;;;;;;;5.78;46.26;98821.48;1671943;81;21414;-93
2021/03/23 17:08:17;;;;;;;25.40;11.83;;;;;;;5.71;47.22;98818.57;1678149;81;21225;-89
2021/03/23 17:10:45;;;;;;;22.93;10.65;;;;;;;5.69;47.31;98824.59;1667484;85;21213;-92
2021/03/23 17:13:41;;;;;;;21.52;6.67;;;;;;;5.65;47.15;98816.47;1664425;85;21213;-92
2021/03/23 17:16:30;;;;;;;12.47;5.25;;;;;;;5.63;46.61;98824.24;1680365;84;21777;-93
2021/03/23 17:22:04;;;;;;;12.30;4.55;;;;;;;5.61;47.32;98827.27;1630749;87;21197;-90
2021/03/23 17:24:32;;;;;;;10.13;5.12;;;;;;;5.58;47.14;98823.42;1625946;87;21191;-91
2021/03/23 17:27:05;;;;;;;11.43;4.50;;;;;;;5.56;48.07;98827.73;1622144;88;21196;-91
2021/03/23 17:34:15;;;;;;;12.73;5.08;;;;;;;5.52;48.82;98827.34;1766127;80;21083;-90
2021/03/23 17:36:50;;;;;;;24.12;7.53;;;;;;;5.50;48.53;98829.08;1685236;84;21317;-91
2021/03/23 17:39:18;;;;;;;21.70;9.45;;;;;;;5.47;49.68;98832.96;1689491;84;21324;-93
2021/03/23 17:41:45;;;;;;;21.93;9.03;;;;;;;5.44;49.54;98829.98;1686251;84;21202;-93
2021/03/23 17:44:13;;;;;;;16.48;8.08;;;;;;;5.42;47.82;98836.03;1712898;82;21184;-93
2021/03/23 17:46:42;;;;;;;19.32;8.60;;;;;;;5.43;47.91;98836.44;1702001;80;21639;-93
2021/03/23 17:49:10;;;;;;;12.43;5.15;;;;;;;5.41;48.03;98836.88;1670260;85;21198;-92
2021/03/23 17:51:37;;;;;;;37.03;12.33;;;;;;;5.41;47.02;98840.31;1694000;84;21330;-93
2021/03/23 17:54:05;;;;;;;20.48;8.53;;;;;;;5.37;47.64;98842.08;1697432;84;21573;-92
2021/03/23 17:56:33;;;;;;;53.90;18.25;;;;;;;5.37;47.13;98845.07;1697076;84;21133;-93
2021/03/23 17:59:00;;;;;;;56.23;18.62;;;;;;;5.37;48.33;98846.36;1689836;84;21197;-92
2021/03/23 18:01:27;;;;;;;51.90;17.67;;;;;;;5.36;48.72;98849.38;1702684;81;21234;-93
2021/03/23 18:03:55;;;;;;;34.23;13.65;;;;;;;5.33;48.86;98849.42;1709018;84;21948;-92
2021/03/23 18:06:22;;;;;;;27.48;10.82;;;;;;;5.33;48.77;98849.42;1683437;85;21176;-92
2021/03/23 18:08:50;;;;;;;26.62;10.03;;;;;;;5.32;50.00;98851.56;1673290;86;21209;-92
2021/03/23 18:11:20;;;;;;;20.95;8.60;;;;;;;5.31;49.95;98850.28;1675114;85;21679;-92
2021/03/23 18:13:47;;;;;;;25.70;10.53;;;;;;;5.28;50.66;98850.32;1735783;81;21725;-93
2021/03/23 18:16:15;;;;;;;23.35;10.38;;;;;;;5.26;49.91;98849.48;1726463;79;21337;-90
2021/03/23 18:18:43;;;;;;;23.25;9.95;;;;;;;5.23;49.75;98848.20;1712662;83;21302;-92
2021/03/23 18:21:12;;;;;;;18.90;7.87;;;;;;;5.21;50.07;98844.78;1719548;79;21598;-92
2021/03/23 18:23:40;;;;;;;17.00;7.10;;;;;;;5.19;49.35;98846.06;1715805;80;21144;-92
2021/03/23 18:26:07;;;;;;;17.65;6.67;;;;;;;5.16;48.95;98840.95;1736799;82;21278;-91
2021/03/23 18:28:35;;;;;;;19.60;7.05;;;;;;;5.11;49.64;98834.55;1708235;83;21157;-91
2021/03/23 18:31:04;;;;;;;23.55;9.40;;;;;;;5.08;50.51;98842.73;1743101;80;21117;-92
2021/03/23 18:33:31;;;;;;;30.43;10.63;;;;;;;5.04;51.89;98844.47;1766803;81;21159;-91
2021/03/23 18:36:00;;;;;;;25.15;10.93;;;;;;;5.03;51.93;98845.32;1766855;80;21178;-91
2021/03/23 18:38:28;;;;;;;29.23;10.88;;;;;;;5.03;50.81;98837.59;1773371;80;21201;-90
2021/03/23 18:40:56;;;;;;;29.85;11.28;;;;;;;5.03;51.31;98826.44;1775396;81;21217;-91
2021/03/23 18:43:26;;;;;;;26.70;11.12;;;;;;;5.02;50.35;98839.77;1709708;79;21189;-93
2021/03/23 18:45:54;;;;;;;29.80;11.90;;;;;;;5.00;51.34;98845.80;1689265;80;21220;-93
2021/03/23 18:48:22;;;;;;;17.05;7.67;;;;;;;4.95;51.32;98845.81;1699033;83;21191;-93
2021/03/23 18:50:50;;;;;;;15.38;5.97;;;;;;;4.89;50.86;98835.11;1708600;82;21193;-90
2021/03/23 18:53:17;;;;;;;13.48;5.75;;;;;;;4.87;50.61;98835.98;1721738;83;21180;-93
2021/03/23 18:55:45;;;;;;;15.50;6.55;;;;;;;4.84;51.35;98833.01;1705802;83;21182;-93
2021/03/23 18:58:19;;;;;;;15.28;5.40;;;;;;;4.80;50.47;98838.20;1708038;83;21591;-91
2021/03/23 19:00:49;;;;;;;10.15;4.70;;;;;;;4.50;52.23;98792.00;1730885;81;21593;-92
2021/03/23 19:03:26;;;;;;;14.07;5.42;;;;;;;4.72;50.75;98836.95;1705244;81;21665;-90
2021/03/23 19:05:54;;;;;;;9.98;4.47;;;;;;;4.69;51.18;98836.52;1742968;80;21175;-91
2021/03/23 19:08:23;;;;;;;12.47;4.53;;;;;;;4.67;51.42;98842.11;1751284;80;21172;-92
2021/03/23 19:10:50;;;;;;;12.47;4.70;;;;;;;4.65;52.81;98838.68;1748683;81;21183;-91
2021/03/23 19:13:23;;;;;;;10.23;4.40;;;;;;;4.67;52.21;98836.11;1771421;80;21677;-91
2021/03/23 19:15:52;;;;;;;10.25;4.22;;;;;;;4.67;51.82;98829.67;1759713;79;21173;-91
2021/03/23 19:18:24;;;;;;;12.35;5.50;;;;;;;4.67;52.45;98832.24;1732049;79;21153;-91
2021/03/23 19:20:54;;;;;;;15.80;6.33;;;;;;;4.66;51.93;98835.26;1666348;80;21135;-90
2021/03/23 19:23:27;;;;;;;12.80;5.10;;;;;;;4.65;52.89;98835.27;1743629;79;21195;-90
2021/03/23 19:25:58;;;;;;;12.35;5.50;;;;;;;4.64;51.95;98831.84;1765623;79;21193;-91
2021/03/23 19:28:30;;;;;;;9.40;4.87;;;;;;;4.64;52.96;98831.84;1753496;80;21173;-92
2021/03/23 19:31:00;;;;;;;10.40;4.85;;;;;;;4.66;52.42;98833.13;1752036;79;21280;-92
2021/03/23 19:33:30;;;;;;;16.23;6.58;;;;;;;4.66;52.26;98840.41;1718462;76;21327;-90
2021/03/23 19:36:05;;;;;;;15.88;5.72;;;;;;;4.66;52.51;98850.71;1789508;79;21217;-91
2021/03/23 19:38:33;;;;;;;14.98;6.45;;;;;;;4.68;52.40;98861.01;1749875;79;21143;-90
2021/03/23 19:41:05;;;;;;;19.05;9.65;;;;;;;4.69;52.82;98864.84;1756621;80;21260;-90
2021/03/23 19:43:37;;;;;;;7.50;4.08;;;;;;;4.69;53.98;98873.85;1734582;79;21133;-87
2021/03/23 19:46:11;;;;;;;7.35;3.87;;;;;;;4.61;56.67;98876.90;1726709;82;21296;-84
2021/03/23 19:48:43;;;;;;;7.15;3.72;;;;;;;4.53;58.24;98875.64;1722943;77;21302;-92
2021/03/23 19:51:16;;;;;;;9.05;4.22;;;;;;;4.46;58.65;98880.41;1747872;80;21175;-91
2021/03/23 19:53:46;;;;;;;6.72;2.92;;;;;;;4.44;57.22;98887.28;1733205;83;21121;-91
2021/03/23 19:56:16;;;;;;;6.45;3.35;;;;;;;4.32;61.37;98895.05;1743972;82;21099;-91
2021/03/23 19:58:44;;;;;;;5.97;2.87;;;;;;;4.25;59.91;98887.77;1744842;82;21118;-91
2021/03/23 20:01:11;;;;;;;6.33;3.42;;;;;;;4.16;63.03;98892.52;1726505;82;21641;-92
2021/03/23 20:03:39;;;;;;;8.35;4.12;;;;;;;4.00;60.42;98906.28;1745461;82;21147;-90
2021/03/23 20:06:08;;;;;;;9.85;4.40;;;;;;;3.94;62.88;98894.28;1745544;82;21134;-91
2021/03/23 20:08:36;;;;;;;7.58;3.45;;;;;;;3.91;62.27;98883.13;1745715;82;21119;-90
2021/03/23 20:11:05;;;;;;;10.80;3.80;;;;;;;3.88;67.35;98893.00;1745506;82;21134;-89
2021/03/23 20:13:33;;;;;;;9.18;3.90;;;;;;;3.82;63.55;98903.70;1742960;82;21124;-90
2021/03/23 20:16:01;;;;;;;8.50;4.05;;;;;;;3.72;69.01;98895.14;1723777;82;21153;-88
2021/03/23 20:18:30;;;;;;;8.95;4.28;;;;;;;3.70;69.88;98889.14;1705643;82;21133;-88
2021/03/23 20:20:58;;;;;;;10.30;4.03;;;;;;;3.69;71.86;98896.01;1737535;82;21110;-86
2021/03/23 20:23:37;;;;;;;7.62;3.60;;;;;;;3.71;70.73;98882.72;1741529;82;21121;-90
2021/03/23 20:26:10;;;;;;;10.88;4.50;;;;;;;3.70;68.11;98875.00;1623161;88;21292;-86
2021/03/23 20:28:38;;;;;;;6.35;4.00;;;;;;;3.66;71.47;98872.01;1672179;86;21162;-83
2021/03/23 20:31:07;;;;;;;7.15;3.25;;;;;;;3.66;69.22;98870.72;1672865;85;21178;-85
2021/03/23 20:33:35;;;;;;;10.78;3.92;;;;;;;3.57;71.57;98853.60;1672041;86;21279;-91
2021/03/23 20:36:04;;;;;;;7.78;4.30;;;;;;;3.54;70.29;98847.16;1673194;85;21302;-93
2021/03/23 20:38:33;;;;;;;9.38;3.70;;;;;;;3.47;75.11;98848.05;1665013;86;21144;-92
2021/03/23 20:41:04;;;;;;;8.70;4.47;;;;;;;3.45;73.41;98845.91;1659199;86;21604;-91
2021/03/23 20:43:35;;;;;;;8.45;4.00;;;;;;;3.28;73.41;98838.19;1669634;85;21303;-92
2021/03/23 20:46:03;;;;;;;5.92;3.60;;;;;;;3.16;73.39;98854.45;1668018;86;21294;-92
2021/03/23 20:48:31;;;;;;;9.35;4.40;;;;;;;3.03;70.95;98856.59;1674152;85;21153;-92
2021/03/23 21:17:23;;;;;;;7.90;4.08;;;;;;;2.23;77.04;98927.75;1768129;77;21291;31
2021/03/23 21:23:19;;;;;;;5.67;3.40;;;;;;;2.10;75.49;98907.56;1771212;77;21193;31
2021/03/23 21:26:11;;;;;;;17.85;8.60;;;;;;;2.06;73.62;98907.55;1768974;76;21134;31
2021/03/23 21:35:08;;;;;;;7.03;3.50;;;;;;;1.94;72.97;98896.79;1800700;76;21198;31
2021/03/23 21:37:52;;;;;;;14.33;6.37;;;;;;;1.89;76.70;98904.86;1770142;77;21430;31
2021/03/23 21:49:29;;;;;;;16.97;6.85;;;;;;;1.76;75.87;98901.37;1785769;76;21213;-80
2021/03/23 21:52:08;;;;;;;16.90;7.70;;;;;;;1.69;73.83;98908.16;1782616;77;21262;31
2021/03/23 21:54:36;;;;;;;10.70;5.58;;;;;;;1.69;74.04;98908.56;1776271;78;21133;-81
2021/03/23 21:57:12;;;;;;;12.98;5.53;;;;;;;1.69;75.15;98914.97;1786510;75;21270;31
2021/03/23 21:59:51;;;;;;;11.57;5.70;;;;;;;1.67;75.39;98916.27;1780486;76;21632;31
2021/03/23 22:02:20;;;;;;;9.80;4.58;;;;;;;1.64;77.79;98921.35;1775699;76;21143;-82
2021/03/23 22:04:49;;;;;;;11.15;5.47;;;;;;;1.64;74.80;98921.78;1776759;77;21244;-82
2021/03/23 22:07:18;;;;;;;14.43;6.05;;;;;;;1.62;76.35;98917.92;1800510;77;21240;-84
2021/03/23 22:13:06;;;;;;;14.25;7.33;;;;;;;1.68;78.02;98926.09;1772839;77;21176;31
2021/03/23 22:15:35;;;;;;;16.17;8.25;;;;;;;1.75;77.40;98931.28;1747633;77;21277;-81
2021/03/23 22:18:03;;;;;;;19.55;9.05;;;;;;;1.83;77.61;98935.58;1824649;76;21122;-82
2021/03/23 22:20:34;;;;;;;13.13;6.45;;;;;;;1.88;75.30;98936.05;1811057;75;21233;-80
2021/03/23 22:23:10;;;;;;;10.80;4.97;;;;;;;1.86;79.55;98933.05;1788136;75;21539;31
2021/03/23 22:25:56;;;;;;;9.13;5.03;;;;;;;1.83;79.95;98935.19;1778677;75;21284;31
2021/03/23 22:28:26;;;;;;;9.35;4.50;;;;;;;1.83;78.58;98941.98;1766134;77;21230;-82
2021/03/23 22:31:01;;;;;;;10.40;4.80;;;;;;;1.84;77.02;98942.44;1763402;77;21353;31
2021/03/23 22:33:35;;;;;;;10.78;4.92;;;;;;;1.83;77.77;98940.70;1805352;75;21195;31
2021/03/23 22:36:14;;;;;;;11.35;5.60;;;;;;;1.78;77.75;98941.97;1740241;76;21225;31
2021/03/23 22:38:46;;;;;;;12.35;6.42;;;;;;;1.73;75.39;98940.66;1772595;76;21291;31
2021/03/23 23:09:37;;;;;;;12.05;5.12;;;;;;;1.88;73.20;98969.81;1773834;76;22464;31
2021/03/23 23:18:46;;;;;;;17.90;9.55;;;;;;;1.88;71.50;98985.20;1786730;77;21192;31
2021/03/23 23:21:29;;;;;;;17.65;9.05;;;;;;;1.90;72.17;98984.78;1786380;76;22467;31
2021/03/23 23:33:13;;;;;;;12.53;5.37;;;;;;;1.96;72.88;98984.83;1770363;77;21078;-82
2021/03/23 23:38:45;;;;;;;11.60;5.05;;;;;;;1.91;73.56;98995.06;1659351;81;22806;-78
2021/03/23 23:47:58;;;;;;;12.75;6.10;;;;;;;1.87;73.21;98997.56;1729344;79;21275;-82
